createdAt,value
2023-05-08T00:02:19.013Z,8.70
2023-05-08T00:04:47.129Z,7.70
2023-05-08T00:07:15.254Z,6.70
2023-05-08T00:09:43.227Z,10.40
2023-05-08T00:12:11.298Z,7.60
2023-05-08T00:14:39.200Z,8.90
2023-05-08T00:17:07.271Z,8.10
2023-05-08T00:19:35.390Z,9.50
2023-05-08T00:22:03.372Z,6.50
2023-05-08T00:24:31.335Z,9.60
2023-05-08T00:26:59.363Z,10.00
2023-05-08T00:29:27.670Z,9.40
2023-05-08T00:31:56.417Z,8.50
2023-05-08T00:34:24.538Z,8.10
2023-05-08T00:36:53.016Z,8.00
2023-05-08T00:39:21.086Z,8.10
2023-05-08T00:41:49.032Z,7.00
2023-05-08T00:44:17.029Z,8.10
2023-05-08T00:46:46.823Z,12.10
2023-05-08T00:49:16.245Z,7.80
2023-05-08T00:51:46.468Z,8.70
2023-05-08T00:54:15.159Z,8.10
2023-05-08T00:56:44.145Z,8.60
2023-05-08T00:59:14.644Z,6.70
2023-05-08T01:01:44.269Z,8.20
2023-05-08T01:04:12.317Z,9.10
2023-05-08T01:06:40.328Z,8.50
2023-05-08T01:09:08.203Z,6.50
2023-05-08T01:11:52.773Z,9.00
2023-05-08T01:14:30.040Z,6.20
2023-05-08T01:17:20.129Z,7.50
2023-05-08T01:19:48.099Z,9.20
2023-05-08T01:22:25.292Z,6.80
2023-05-08T01:24:59.196Z,8.70
2023-05-08T01:27:40.784Z,6.40
2023-05-08T01:30:14.232Z,8.90
2023-05-08T01:32:46.981Z,7.40
2023-05-08T01:35:21.498Z,6.20
2023-05-08T01:38:10.980Z,11.50
2023-05-08T01:40:53.936Z,7.30
2023-05-08T01:43:57.171Z,9.50
2023-05-08T01:46:28.529Z,8.90
2023-05-08T01:49:10.907Z,9.00
2023-05-08T01:51:46.508Z,8.70
2023-05-08T01:54:26.943Z,12.60
2023-05-08T01:56:58.151Z,10.20
2023-05-08T01:59:28.326Z,11.00
2023-05-08T02:01:58.878Z,13.50
2023-05-08T02:04:28.698Z,14.40
2023-05-08T02:06:59.468Z,13.20
2023-05-08T02:09:29.715Z,13.50
2023-05-08T02:12:00.909Z,11.50
2023-05-08T02:14:32.091Z,9.80
2023-05-08T02:17:02.627Z,15.80
2023-05-08T02:19:33.606Z,26.90
2023-05-08T02:22:02.764Z,11.10
2023-05-08T02:24:34.422Z,12.20
2023-05-08T02:27:02.752Z,18.40
2023-05-08T02:29:31.795Z,13.60
2023-05-08T02:32:02.712Z,10.30
2023-05-08T02:34:31.936Z,9.20
2023-05-08T02:37:01.415Z,9.70
2023-05-08T02:39:32.056Z,13.30
2023-05-08T02:42:00.902Z,12.50
2023-05-08T02:44:30.822Z,8.30
2023-05-08T02:47:12.559Z,11.20
2023-05-08T02:49:53.637Z,10.50
2023-05-08T02:52:29.717Z,10.60
2023-05-08T02:55:00.750Z,14.00
2023-05-08T02:57:39.973Z,14.20
2023-05-08T03:00:32.928Z,12.50
2023-05-08T03:03:34.298Z,14.70
2023-05-08T03:06:09.005Z,13.60
2023-05-08T03:08:38.404Z,14.40
2023-05-08T03:11:15.292Z,10.00
2023-05-08T03:13:46.123Z,11.20
2023-05-08T03:16:22.260Z,9.00
2023-05-08T03:18:55.055Z,9.50
2023-05-08T03:21:26.937Z,9.20
2023-05-08T03:23:57.399Z,8.30
2023-05-08T03:26:26.574Z,9.40
2023-05-08T03:28:56.580Z,10.80
2023-05-08T03:31:32.256Z,10.30
2023-05-08T03:34:01.210Z,11.00
2023-05-08T03:36:30.901Z,11.20
2023-05-08T03:39:00.525Z,15.80
2023-05-08T03:41:29.444Z,11.30
2023-05-08T03:43:58.818Z,11.80
2023-05-08T03:46:26.903Z,10.50
2023-05-08T03:48:55.694Z,10.70
2023-05-08T03:51:24.295Z,9.90
2023-05-08T03:53:52.621Z,10.40
2023-05-08T03:56:21.130Z,8.60
2023-05-08T03:59:39.600Z,9.60
2023-05-08T04:02:28.657Z,9.30
2023-05-08T04:05:10.861Z,10.70
2023-05-08T04:07:47.740Z,11.20
2023-05-08T04:10:37.837Z,8.20
2023-05-08T04:13:05.970Z,9.70
2023-05-08T04:15:48.811Z,10.80
2023-05-08T04:18:22.732Z,10.90
2023-05-08T04:20:54.688Z,9.60
2023-05-08T04:23:23.890Z,9.40
2023-05-08T04:25:53.902Z,10.10
2023-05-08T04:28:23.003Z,8.80
2023-05-08T04:30:52.079Z,9.90
2023-05-08T04:33:20.123Z,9.70
2023-05-08T04:35:49.030Z,8.50
2023-05-08T04:38:17.447Z,10.80
2023-05-08T04:40:45.751Z,9.30
2023-05-08T04:43:13.931Z,9.90
2023-05-08T04:45:42.577Z,10.00
2023-05-08T04:48:10.858Z,12.80
2023-05-08T04:50:39.028Z,9.90
2023-05-08T04:53:07.098Z,10.40
2023-05-08T04:55:36.089Z,10.10
2023-05-08T04:58:04.234Z,8.40
2023-05-08T05:00:32.353Z,12.50
2023-05-08T05:03:00.690Z,10.60
2023-05-08T05:05:28.784Z,9.00
2023-05-08T05:07:57.269Z,10.40
2023-05-08T05:10:25.910Z,8.10
2023-05-08T05:12:54.277Z,8.60
2023-05-08T05:15:23.015Z,9.10
2023-05-08T05:17:51.005Z,8.00
2023-05-08T05:20:19.426Z,10.60
2023-05-08T05:22:47.604Z,10.90
2023-05-08T05:25:16.145Z,10.30
2023-05-08T05:27:44.704Z,12.90
2023-05-08T05:30:13.623Z,13.80
2023-05-08T05:32:42.476Z,10.50
2023-05-08T05:35:12.002Z,11.40
2023-05-08T05:37:40.684Z,8.90
2023-05-08T05:40:09.647Z,12.00
2023-05-08T05:42:39.216Z,9.20
2023-05-08T05:45:08.183Z,8.20
2023-05-08T05:47:36.481Z,9.00
2023-05-08T05:50:06.223Z,11.30
2023-05-08T05:52:34.336Z,10.90
2023-05-08T05:55:02.399Z,9.10
2023-05-08T05:57:30.487Z,9.60
2023-05-08T05:59:59.748Z,10.10
2023-05-08T06:02:28.448Z,9.20
2023-05-08T06:04:57.152Z,9.20
2023-05-08T06:07:25.042Z,13.30
2023-05-08T06:09:53.400Z,13.40
2023-05-08T06:12:21.671Z,10.50
2023-05-08T06:14:52.220Z,9.10
2023-05-08T06:17:20.687Z,7.10
2023-05-08T06:19:54.288Z,9.50
2023-05-08T06:22:23.478Z,8.70
2023-05-08T06:24:55.833Z,8.90
2023-05-08T06:27:23.958Z,7.40
2023-05-08T06:29:53.507Z,14.40
2023-05-08T06:32:22.493Z,8.80
2023-05-08T06:34:50.776Z,7.10
2023-05-08T06:37:18.883Z,8.00
2023-05-08T06:39:48.940Z,6.20
2023-05-08T06:42:18.610Z,6.70
2023-05-08T06:44:47.358Z,8.20
2023-05-08T06:47:15.678Z,7.10
2023-05-08T06:49:43.738Z,9.90
2023-05-08T06:52:11.813Z,8.80
2023-05-08T06:54:41.327Z,7.70
2023-05-08T06:57:09.600Z,10.10
2023-05-08T06:59:38.429Z,11.00
2023-05-08T07:02:06.903Z,6.50
2023-05-08T07:04:35.706Z,16.00
2023-05-08T07:07:03.834Z,10.00
2023-05-08T07:09:31.950Z,5.40
2023-05-08T07:12:00.278Z,6.60
2023-05-08T07:14:28.778Z,8.70
2023-05-08T07:16:56.952Z,8.40
2023-05-08T07:19:25.361Z,8.00
2023-05-08T07:21:53.531Z,10.60
2023-05-08T07:24:21.425Z,13.80
2023-05-08T07:26:49.637Z,9.00
2023-05-08T07:29:17.497Z,6.80
2023-05-08T07:31:46.644Z,8.20
2023-05-08T07:34:15.500Z,6.80
2023-05-08T07:36:43.763Z,7.60
2023-05-08T07:39:11.839Z,5.20
2023-05-08T07:41:41.124Z,10.50
2023-05-08T07:44:09.664Z,7.70
2023-05-08T07:46:38.072Z,9.30
2023-05-08T07:49:06.494Z,9.10
2023-05-08T07:51:34.645Z,6.20
2023-05-08T07:54:02.825Z,14.90
2023-05-08T07:56:31.403Z,6.90
2023-05-08T07:58:59.490Z,8.70
2023-05-08T08:01:27.645Z,7.20
2023-05-08T08:03:56.320Z,8.80
2023-05-08T08:06:24.279Z,10.60
2023-05-08T08:08:52.385Z,10.60
2023-05-08T08:11:20.474Z,6.20
2023-05-08T08:13:48.530Z,9.30
2023-05-08T08:16:16.797Z,4.20
2023-05-08T08:18:45.085Z,6.00
2023-05-08T08:21:13.157Z,7.20
2023-05-08T08:23:41.359Z,13.60
2023-05-08T08:26:09.291Z,6.40
2023-05-08T08:28:37.773Z,3.80
2023-05-08T08:31:06.102Z,3.30
2023-05-08T08:33:34.220Z,4.90
2023-05-08T08:36:02.296Z,4.40
2023-05-08T08:38:30.488Z,3.10
2023-05-08T08:40:58.514Z,5.60
2023-05-08T08:43:27.128Z,4.60
2023-05-08T08:45:55.357Z,9.30
2023-05-08T08:48:28.696Z,5.80
2023-05-08T08:51:03.718Z,3.60
2023-05-08T08:53:37.959Z,4.40
2023-05-08T08:56:09.528Z,3.40
2023-05-08T08:58:48.021Z,1.70
2023-05-08T09:01:18.459Z,1.90
2023-05-08T09:03:49.040Z,9.80
2023-05-08T09:06:19.721Z,3.80
2023-05-08T09:08:48.670Z,2.90
2023-05-08T09:11:16.666Z,10.20
2023-05-08T09:13:44.625Z,2.50
2023-05-08T09:16:12.709Z,4.50
2023-05-08T09:18:41.286Z,3.20
2023-05-08T09:21:09.894Z,2.40
2023-05-08T09:23:38.254Z,4.60
2023-05-08T09:26:06.433Z,3.80
2023-05-08T09:28:34.505Z,4.30
2023-05-08T09:31:02.685Z,3.70
2023-05-08T09:33:30.821Z,3.40
2023-05-08T09:35:58.784Z,3.60
2023-05-08T09:38:36.179Z,3.90
2023-05-08T09:41:08.886Z,5.50
2023-05-08T09:43:38.299Z,2.20
2023-05-08T09:46:26.993Z,5.10
2023-05-08T09:48:58.260Z,1.50
2023-05-08T09:51:28.275Z,0.80
2023-05-08T09:53:59.052Z,1.50
2023-05-08T09:56:34.597Z,2.80
2023-05-08T09:59:04.691Z,1.20
2023-05-08T10:01:35.868Z,1.00
2023-05-08T10:04:06.188Z,1.40
2023-05-08T10:06:36.595Z,2.60
2023-05-08T10:09:09.674Z,1.50
2023-05-08T10:11:41.662Z,1.40
2023-05-08T10:14:09.990Z,1.20
2023-05-08T10:16:46.266Z,2.40
2023-05-08T10:19:19.192Z,1.50
2023-05-08T10:21:50.060Z,1.80
2023-05-08T10:24:20.593Z,3.10
2023-05-08T10:27:07.401Z,0.90
2023-05-08T10:29:45.132Z,1.20
2023-05-08T10:32:20.413Z,2.60
2023-05-08T10:35:00.081Z,2.00
2023-05-08T10:37:30.388Z,1.70
2023-05-08T10:39:58.815Z,1.10
2023-05-08T10:42:28.011Z,3.30
2023-05-08T10:44:56.604Z,1.00
2023-05-08T10:47:49.705Z,3.60
2023-05-08T10:50:17.864Z,2.50
2023-05-08T10:53:05.705Z,1.90
2023-05-08T10:55:39.962Z,1.70
2023-05-08T10:58:28.522Z,2.20
2023-05-08T11:01:07.885Z,1.80
2023-05-08T11:03:42.947Z,4.00
2023-05-08T11:06:11.842Z,3.20
2023-05-08T11:08:48.705Z,1.40
2023-05-08T11:11:33.605Z,2.80
2023-05-08T11:14:08.040Z,2.20
2023-05-08T11:17:01.832Z,1.40
2023-05-08T11:19:29.955Z,7.00
2023-05-08T11:22:23.526Z,2.70
2023-05-08T11:25:10.345Z,3.50
2023-05-08T11:27:48.385Z,4.00
2023-05-08T11:30:36.541Z,2.50
2023-05-08T11:33:14.730Z,1.90
2023-05-08T11:35:56.423Z,5.00
2023-05-08T11:38:36.520Z,6.30
2023-05-08T11:41:24.665Z,4.60
2023-05-08T11:43:55.503Z,3.90
2023-05-08T11:46:23.736Z,1.70
2023-05-08T11:49:00.394Z,3.30
2023-05-08T11:51:33.153Z,1.50
2023-05-08T11:54:01.727Z,2.00
2023-05-08T11:56:31.440Z,2.80
2023-05-08T11:59:04.561Z,1.70
2023-05-08T12:01:33.227Z,3.20
2023-05-08T12:04:06.418Z,2.70
2023-05-08T12:06:36.018Z,1.90
2023-05-08T12:09:10.543Z,1.50
2023-05-08T12:11:39.392Z,3.20
2023-05-08T12:14:07.597Z,0.80
2023-05-08T12:16:38.803Z,5.70
2023-05-08T12:19:12.240Z,3.40
2023-05-08T12:21:48.105Z,2.60
2023-05-08T12:24:22.609Z,1.60
2023-05-08T12:26:54.871Z,1.90
2023-05-08T12:29:23.716Z,1.00
2023-05-08T12:31:52.823Z,1.80
2023-05-08T12:34:21.764Z,1.80
2023-05-08T12:37:01.174Z,3.20
2023-05-08T12:39:29.291Z,1.60
2023-05-08T12:41:57.982Z,1.20
2023-05-08T12:44:28.374Z,1.30
2023-05-08T12:46:57.591Z,1.50
2023-05-08T12:49:31.094Z,2.20
2023-05-08T12:52:02.861Z,0.60
2023-05-08T12:54:35.023Z,2.40
2023-05-08T12:57:10.102Z,1.50
2023-05-08T12:59:38.260Z,4.40
2023-05-08T13:02:16.927Z,2.50
2023-05-08T13:04:46.742Z,1.60
2023-05-08T13:07:15.157Z,1.40
2023-05-08T13:09:57.377Z,3.70
2023-05-08T13:12:25.925Z,5.50
2023-05-08T13:14:53.956Z,4.30
2023-05-08T13:17:22.071Z,1.30
2023-05-08T13:19:50.194Z,2.20
2023-05-08T13:22:18.111Z,2.90
2023-05-08T13:24:46.498Z,2.70
2023-05-08T13:27:14.883Z,1.70
2023-05-08T13:29:42.941Z,7.60
2023-05-08T13:32:11.185Z,5.40
2023-05-08T13:34:44.300Z,1.90
2023-05-08T13:37:18.184Z,3.20
2023-05-08T13:39:46.831Z,8.20
2023-05-08T13:42:14.788Z,2.70
2023-05-08T13:44:43.876Z,1.60
2023-05-08T13:47:12.033Z,4.50
2023-05-08T13:49:40.110Z,3.60
2023-05-08T13:52:08.128Z,2.90
2023-05-08T13:54:36.250Z,4.20
2023-05-08T13:57:04.449Z,1.90
2023-05-08T13:59:32.803Z,6.90
2023-05-08T14:02:01.202Z,2.70
2023-05-08T14:04:29.314Z,7.10
2023-05-08T14:06:57.436Z,2.70
2023-05-08T14:09:25.437Z,3.60
2023-05-08T14:11:53.380Z,2.10
2023-05-08T14:14:21.565Z,2.80
2023-05-08T14:16:51.090Z,4.40
2023-05-08T14:19:19.334Z,7.40
2023-05-08T14:21:47.338Z,3.50
2023-05-08T14:24:15.470Z,4.70
2023-05-08T14:26:44.841Z,6.30
2023-05-08T14:29:13.253Z,1.70
2023-05-08T14:31:41.589Z,5.50
2023-05-08T14:34:09.908Z,3.10
2023-05-08T14:36:38.080Z,3.90
2023-05-08T14:39:06.368Z,5.20
2023-05-08T14:41:35.048Z,2.10
2023-05-08T14:44:03.123Z,7.80
2023-05-08T14:46:31.407Z,3.20
2023-05-08T14:48:59.585Z,2.90
2023-05-08T14:51:28.351Z,5.90
2023-05-08T14:53:57.248Z,2.50
2023-05-08T14:56:26.381Z,3.40
2023-05-08T14:58:55.556Z,2.50
2023-05-08T15:01:23.624Z,4.40
2023-05-08T15:03:53.444Z,3.00
2023-05-08T15:06:23.491Z,3.70
2023-05-08T15:08:52.126Z,5.80
2023-05-08T15:11:20.197Z,5.10
2023-05-08T15:13:48.306Z,8.00
2023-05-08T15:16:16.568Z,8.20
2023-05-08T15:18:44.832Z,4.20
2023-05-08T15:21:12.903Z,4.30
2023-05-08T15:23:40.970Z,4.70
2023-05-08T15:26:09.037Z,3.70
2023-05-08T15:28:37.314Z,2.30
2023-05-08T15:31:05.405Z,2.30
2023-05-08T15:33:33.563Z,2.40
2023-05-08T15:36:01.484Z,3.00
2023-05-08T15:38:29.368Z,3.10
2023-05-08T15:40:57.366Z,2.10
2023-05-08T15:43:25.392Z,2.40
2023-05-08T15:45:53.336Z,2.50
2023-05-08T15:48:21.595Z,3.40
2023-05-08T15:50:49.567Z,3.20
2023-05-08T15:53:17.470Z,1.90
2023-05-08T15:55:45.511Z,3.00
2023-05-08T15:58:13.665Z,2.40
2023-05-08T16:00:45.280Z,3.00
2023-05-08T16:03:13.828Z,3.60
2023-05-08T16:05:42.305Z,3.30
2023-05-08T16:08:12.988Z,1.70
2023-05-08T16:10:41.988Z,1.70
2023-05-08T16:13:10.232Z,2.50
2023-05-08T16:15:38.661Z,2.80
2023-05-08T16:18:07.184Z,7.60
2023-05-08T16:20:36.204Z,3.50
2023-05-08T16:23:04.563Z,4.10
2023-05-08T16:25:32.709Z,3.50
2023-05-08T16:28:00.929Z,6.00
2023-05-08T16:30:29.279Z,3.00
2023-05-08T16:32:57.607Z,5.50
2023-05-08T16:35:26.129Z,3.40
2023-05-08T16:37:54.120Z,3.30
2023-05-08T16:40:22.253Z,4.90
2023-05-08T16:42:51.110Z,3.60
2023-05-08T16:45:19.194Z,3.60
2023-05-08T16:47:47.224Z,6.10
2023-05-08T16:50:15.574Z,3.80
2023-05-08T16:52:43.647Z,2.50
2023-05-08T16:55:11.917Z,4.80
2023-05-08T16:57:40.062Z,5.50
2023-05-08T17:00:08.787Z,7.10
2023-05-08T17:02:37.083Z,4.30
2023-05-08T17:05:05.953Z,5.60
2023-05-08T17:07:33.912Z,2.90
2023-05-08T17:10:01.963Z,4.60
2023-05-08T17:12:30.154Z,3.20
2023-05-08T17:14:58.140Z,5.80
2023-05-08T17:17:26.312Z,3.90
2023-05-08T17:19:54.294Z,4.00
2023-05-08T17:22:22.199Z,5.70
2023-05-08T17:24:50.345Z,8.70
2023-05-08T17:27:19.489Z,6.90
2023-05-08T17:29:47.504Z,4.50
2023-05-08T17:32:15.607Z,3.80
2023-05-08T17:34:43.837Z,4.50
2023-05-08T17:37:11.978Z,9.50
2023-05-08T17:39:40.192Z,4.90
2023-05-08T17:42:08.259Z,3.00
2023-05-08T17:44:37.034Z,8.00
2023-05-08T17:47:05.193Z,7.20
2023-05-08T17:49:33.284Z,5.60
2023-05-08T17:52:01.352Z,3.20
2023-05-08T17:54:29.429Z,7.20
2023-05-08T17:56:58.609Z,5.60
2023-05-08T17:59:26.794Z,7.10
2023-05-08T18:01:54.776Z,7.70
2023-05-08T18:04:22.736Z,7.10
2023-05-08T18:06:51.817Z,7.90
2023-05-08T18:09:20.822Z,3.90
2023-05-08T18:11:48.908Z,4.50
2023-05-08T18:14:17.167Z,6.50
2023-05-08T18:16:45.350Z,7.50
2023-05-08T18:19:13.544Z,4.80
2023-05-08T18:21:41.698Z,8.10
2023-05-08T18:24:09.770Z,4.80
2023-05-08T18:26:38.357Z,13.70
2023-05-08T18:29:06.736Z,8.10
2023-05-08T18:31:34.755Z,5.60
2023-05-08T18:34:02.975Z,4.60
2023-05-08T18:36:32.073Z,7.20
2023-05-08T18:39:00.271Z,8.70
2023-05-08T18:41:28.426Z,8.70
2023-05-08T18:43:56.498Z,7.80
2023-05-08T18:46:24.614Z,5.10
2023-05-08T18:48:52.738Z,7.60
2023-05-08T18:51:20.916Z,9.20
2023-05-08T18:53:48.963Z,5.80
2023-05-08T18:56:17.162Z,10.40
2023-05-08T18:58:47.975Z,16.90
2023-05-08T19:01:20.149Z,8.60
2023-05-08T19:03:48.538Z,7.50
2023-05-08T19:06:17.127Z,6.60
2023-05-08T19:08:45.199Z,6.70
2023-05-08T19:11:13.298Z,5.80
2023-05-08T19:13:41.553Z,7.20
2023-05-08T19:16:09.598Z,4.30
2023-05-08T19:18:37.741Z,5.90
2023-05-08T19:21:06.794Z,6.10
2023-05-08T19:23:34.808Z,6.30
2023-05-08T19:26:02.753Z,6.60
2023-05-08T19:28:30.896Z,2.90
2023-05-08T19:30:59.028Z,5.60
2023-05-08T19:33:26.940Z,6.70
2023-05-08T19:35:54.908Z,6.30
2023-05-08T19:38:22.987Z,9.20
2023-05-08T19:40:57.076Z,8.10
2023-05-08T19:43:26.788Z,9.10
2023-05-08T19:45:56.188Z,5.40
2023-05-08T19:48:24.561Z,4.80
2023-05-08T19:50:54.871Z,3.60
2023-05-08T19:53:24.131Z,6.80
2023-05-08T19:55:52.110Z,12.60
2023-05-08T19:58:20.150Z,12.60
2023-05-08T20:03:20.050Z,7.50
2023-05-08T20:05:48.339Z,7.60
2023-05-08T20:08:16.849Z,9.30
2023-05-08T20:10:49.082Z,8.00
2023-05-08T20:13:18.396Z,7.70
2023-05-08T20:15:46.970Z,8.40
2023-05-08T20:18:15.267Z,8.00
2023-05-08T20:20:45.199Z,6.60
2023-05-08T20:23:13.375Z,6.40
2023-05-08T20:25:46.146Z,9.00
2023-05-08T20:28:22.404Z,6.60
2023-05-08T20:30:51.194Z,11.90
2023-05-08T20:33:19.486Z,10.60
2023-05-08T20:35:47.709Z,10.60
2023-05-08T20:38:16.329Z,4.70
2023-05-08T20:40:44.724Z,4.70
2023-05-08T20:43:12.985Z,6.20
2023-05-08T20:45:41.102Z,4.10
2023-05-08T20:48:09.216Z,6.00
2023-05-08T20:50:37.207Z,9.00
2023-05-08T20:53:05.279Z,5.40
2023-05-08T20:55:33.493Z,4.10
2023-05-08T20:58:03.738Z,5.30
2023-05-08T21:00:31.915Z,4.00
2023-05-08T21:03:00.047Z,6.40
2023-05-08T21:05:28.408Z,6.20
2023-05-08T21:08:00.225Z,7.20
2023-05-08T21:10:30.785Z,7.10
2023-05-08T21:12:59.203Z,5.90
2023-05-08T21:15:27.559Z,9.60
2023-05-08T21:17:57.095Z,8.00
2023-05-08T21:20:25.331Z,6.20
2023-05-08T21:22:53.231Z,9.70
2023-05-08T21:25:22.113Z,11.20
2023-05-08T21:27:50.156Z,8.90
2023-05-08T21:30:18.314Z,13.60
2023-05-08T21:32:46.761Z,13.00
2023-05-08T21:35:16.014Z,13.00
2023-05-08T21:37:44.561Z,7.90
2023-05-08T21:40:12.784Z,5.80
2023-05-08T21:42:41.257Z,8.30
2023-05-08T21:45:10.052Z,12.80
2023-05-08T21:47:38.148Z,9.50
2023-05-08T21:50:07.268Z,14.90
2023-05-08T21:52:35.601Z,10.80
2023-05-08T21:55:08.576Z,11.90
2023-05-08T21:57:36.742Z,11.00
2023-05-08T22:00:07.113Z,5.90
2023-05-08T22:02:35.849Z,6.60
2023-05-08T22:05:04.243Z,5.40
2023-05-08T22:07:32.213Z,10.70
2023-05-08T22:10:00.288Z,13.50
2023-05-08T22:12:28.278Z,13.30
2023-05-08T22:14:56.221Z,10.20
2023-05-08T22:17:24.232Z,10.60
2023-05-08T22:19:52.159Z,8.00
2023-05-08T22:22:20.131Z,8.00
2023-05-08T22:24:48.154Z,10.60
2023-05-08T22:27:16.219Z,8.40
2023-05-08T22:29:44.229Z,13.90
2023-05-08T22:32:14.083Z,20.70
2023-05-08T22:34:42.234Z,14.20
2023-05-08T22:37:10.189Z,9.80
2023-05-08T22:39:38.169Z,4.90
2023-05-08T22:42:06.396Z,8.20
2023-05-08T22:44:35.363Z,5.60
2023-05-08T22:47:03.572Z,4.60
2023-05-08T22:49:32.100Z,14.20
2023-05-08T22:52:00.266Z,13.70
2023-05-08T22:54:28.239Z,7.10
2023-05-08T22:56:56.307Z,7.60
2023-05-08T22:59:25.832Z,7.60
2023-05-08T23:01:53.896Z,7.30
2023-05-08T23:04:22.472Z,4.80
2023-05-08T23:06:50.617Z,6.50
2023-05-08T23:09:18.733Z,5.60
2023-05-08T23:11:47.608Z,5.60
2023-05-08T23:14:16.193Z,8.50
2023-05-08T23:16:44.311Z,13.50
2023-05-08T23:19:12.331Z,10.30
2023-05-08T23:21:40.402Z,7.90
2023-05-08T23:24:08.399Z,7.60
2023-05-08T23:26:36.451Z,6.90
2023-05-08T23:29:04.403Z,7.40
2023-05-08T23:31:32.534Z,7.40
2023-05-08T23:34:00.777Z,4.40
2023-05-08T23:36:28.687Z,2.10
2023-05-08T23:38:56.701Z,2.60
2023-05-08T23:41:26.185Z,4.00
2023-05-08T23:43:54.896Z,3.30
2023-05-08T23:46:22.881Z,6.10
2023-05-08T23:48:50.861Z,12.10
2023-05-08T23:51:18.870Z,6.30
2023-05-08T23:53:47.180Z,4.50
2023-05-08T23:56:15.112Z,4.80
2023-05-08T23:58:43.121Z,8.50
